sensor_id;sensor_type;location;lat;lon;timestamp;P1;durP1;ratioP1;P2;durP2;ratioP2
55609;SDS011;41486;52.502;13.486;2023-04-15T00:00:55;20.08;;;11.68;;
55609;SDS011;41486;52.502;13.486;2023-04-15T00:03:23;18.10;;;10.43;;
55609;SDS011;41486;52.502;13.486;2023-04-15T00:05:52;19.00;;;10.55;;
55609;SDS011;41486;52.502;13.486;2023-04-15T00:08:20;20.10;;;12.10;;
55609;SDS011;41486;52.502;13.486;2023-04-15T00:10:49;20.35;;;11.52;;
55609;SDS011;41486;52.502;13.486;2023-04-15T00:13:18;18.38;;;11.40;;
55609;SDS011;41486;52.502;13.486;2023-04-15T00:15:46;23.08;;;12.98;;
55609;SDS011;41486;52.502;13.486;2023-04-15T00:18:14;20.73;;;11.90;;
55609;SDS011;41486;52.502;13.486;2023-04-15T00:20:42;21.92;;;11.90;;
55609;SDS011;41486;52.502;13.486;2023-04-15T00:23:10;18.33;;;11.65;;
55609;SDS011;41486;52.502;13.486;2023-04-15T00:25:38;25.60;;;13.05;;
55609;SDS011;41486;52.502;13.486;2023-04-15T00:28:06;21.40;;;11.65;;
55609;SDS011;41486;52.502;13.486;2023-04-15T00:30:36;24.38;;;12.07;;
55609;SDS011;41486;52.502;13.486;2023-04-15T00:33:04;21.13;;;12.15;;
55609;SDS011;41486;52.502;13.486;2023-04-15T00:35:33;16.95;;;11.10;;
55609;SDS011;41486;52.502;13.486;2023-04-15T00:38:02;22.10;;;12.55;;
55609;SDS011;41486;52.502;13.486;2023-04-15T00:40:30;22.92;;;11.55;;
55609;SDS011;41486;52.502;13.486;2023-04-15T00:42:58;22.15;;;12.27;;
55609;SDS011;41486;52.502;13.486;2023-04-15T00:45:27;19.58;;;11.50;;
55609;SDS011;41486;52.502;13.486;2023-04-15T00:47:57;23.08;;;12.35;;
55609;SDS011;41486;52.502;13.486;2023-04-15T00:50:25;25.30;;;12.73;;
55609;SDS011;41486;52.502;13.486;2023-04-15T00:52:53;19.58;;;11.60;;
55609;SDS011;41486;52.502;13.486;2023-04-15T00:55:21;24.30;;;12.73;;
55609;SDS011;41486;52.502;13.486;2023-04-15T00:57:49;23.02;;;11.77;;
55609;SDS011;41486;52.502;13.486;2023-04-15T01:00:18;24.13;;;12.25;;
55609;SDS011;41486;52.502;13.486;2023-04-15T01:02:48;22.48;;;12.55;;
55609;SDS011;41486;52.502;13.486;2023-04-15T01:05:18;22.30;;;12.00;;
55609;SDS011;41486;52.502;13.486;2023-04-15T01:07:46;22.55;;;12.50;;
55609;SDS011;41486;52.502;13.486;2023-04-15T01:10:15;20.15;;;11.82;;
55609;SDS011;41486;52.502;13.486;2023-04-15T01:12:43;26.10;;;12.85;;
55609;SDS011;41486;52.502;13.486;2023-04-15T01:15:11;24.05;;;11.90;;
55609;SDS011;41486;52.502;13.486;2023-04-15T01:17:39;21.52;;;12.07;;
55609;SDS011;41486;52.502;13.486;2023-04-15T01:20:07;24.42;;;13.93;;
55609;SDS011;41486;52.502;13.486;2023-04-15T01:22:39;28.08;;;13.38;;
55609;SDS011;41486;52.502;13.486;2023-04-15T01:25:09;26.92;;;14.02;;
55609;SDS011;41486;52.502;13.486;2023-04-15T01:27:40;25.67;;;12.38;;
55609;SDS011;41486;52.502;13.486;2023-04-15T01:30:09;29.95;;;13.35;;
55609;SDS011;41486;52.502;13.486;2023-04-15T01:32:37;24.48;;;13.15;;
55609;SDS011;41486;52.502;13.486;2023-04-15T01:35:24;23.83;;;12.85;;
55609;SDS011;41486;52.502;13.486;2023-04-15T01:37:52;23.42;;;12.98;;
55609;SDS011;41486;52.502;13.486;2023-04-15T01:40:21;26.88;;;12.73;;
55609;SDS011;41486;52.502;13.486;2023-04-15T01:42:52;29.25;;;12.75;;
55609;SDS011;41486;52.502;13.486;2023-04-15T01:45:21;25.33;;;13.52;;
55609;SDS011;41486;52.502;13.486;2023-04-15T01:47:50;30.33;;;14.13;;
55609;SDS011;41486;52.502;13.486;2023-04-15T01:50:19;24.13;;;11.90;;
55609;SDS011;41486;52.502;13.486;2023-04-15T01:52:49;25.80;;;14.18;;
55609;SDS011;41486;52.502;13.486;2023-04-15T01:55:21;25.85;;;13.52;;
55609;SDS011;41486;52.502;13.486;2023-04-15T01:57:51;27.08;;;13.70;;
55609;SDS011;41486;52.502;13.486;2023-04-15T02:00:21;22.20;;;12.82;;
55609;SDS011;41486;52.502;13.486;2023-04-15T02:02:52;28.58;;;13.23;;
55609;SDS011;41486;52.502;13.486;2023-04-15T02:05:21;23.60;;;12.95;;
55609;SDS011;41486;52.502;13.486;2023-04-15T02:07:50;25.52;;;12.85;;
55609;SDS011;41486;52.502;13.486;2023-04-15T02:10:20;26.98;;;12.43;;
55609;SDS011;41486;52.502;13.486;2023-04-15T02:12:49;23.75;;;13.20;;
55609;SDS011;41486;52.502;13.486;2023-04-15T02:15:20;26.45;;;13.15;;
55609;SDS011;41486;52.502;13.486;2023-04-15T02:17:50;28.83;;;13.95;;
55609;SDS011;41486;52.502;13.486;2023-04-15T02:20:22;22.77;;;11.27;;
55609;SDS011;41486;52.502;13.486;2023-04-15T02:22:51;29.35;;;13.57;;
55609;SDS011;41486;52.502;13.486;2023-04-15T02:25:20;29.15;;;13.43;;
55609;SDS011;41486;52.502;13.486;2023-04-15T02:27:50;22.35;;;12.90;;
55609;SDS011;41486;52.502;13.486;2023-04-15T02:30:21;24.45;;;12.45;;
55609;SDS011;41486;52.502;13.486;2023-04-15T02:32:52;24.67;;;11.10;;
55609;SDS011;41486;52.502;13.486;2023-04-15T02:35:24;23.65;;;11.90;;
55609;SDS011;41486;52.502;13.486;2023-04-15T02:37:54;22.55;;;12.18;;
55609;SDS011;41486;52.502;13.486;2023-04-15T02:40:24;24.60;;;12.90;;
55609;SDS011;41486;52.502;13.486;2023-04-15T02:42:53;23.13;;;13.48;;
55609;SDS011;41486;52.502;13.486;2023-04-15T02:45:24;22.45;;;11.93;;
55609;SDS011;41486;52.502;13.486;2023-04-15T02:47:54;25.70;;;12.18;;
55609;SDS011;41486;52.502;13.486;2023-04-15T02:50:23;20.95;;;12.52;;
55609;SDS011;41486;52.502;13.486;2023-04-15T02:52:54;23.83;;;13.00;;
55609;SDS011;41486;52.502;13.486;2023-04-15T02:55:23;21.95;;;12.30;;
55609;SDS011;41486;52.502;13.486;2023-04-15T02:57:52;21.95;;;12.57;;
55609;SDS011;41486;52.502;13.486;2023-04-15T03:00:21;23.95;;;12.13;;
55609;SDS011;41486;52.502;13.486;2023-04-15T03:02:56;22.17;;;11.77;;
55609;SDS011;41486;52.502;13.486;2023-04-15T03:05:27;23.58;;;12.20;;
55609;SDS011;41486;52.502;13.486;2023-04-15T03:07:56;21.60;;;12.00;;
55609;SDS011;41486;52.502;13.486;2023-04-15T03:10:25;21.23;;;11.48;;
55609;SDS011;41486;52.502;13.486;2023-04-15T03:12:55;21.63;;;12.00;;
55609;SDS011;41486;52.502;13.486;2023-04-15T03:15:24;25.13;;;12.98;;
55609;SDS011;41486;52.502;13.486;2023-04-15T03:17:56;25.02;;;12.70;;
55609;SDS011;41486;52.502;13.486;2023-04-15T03:20:25;22.38;;;11.20;;
55609;SDS011;41486;52.502;13.486;2023-04-15T03:22:54;25.42;;;11.70;;
55609;SDS011;41486;52.502;13.486;2023-04-15T03:25:25;26.73;;;12.13;;
55609;SDS011;41486;52.502;13.486;2023-04-15T03:27:54;21.98;;;11.45;;
55609;SDS011;41486;52.502;13.486;2023-04-15T03:30:23;18.23;;;11.82;;
55609;SDS011;41486;52.502;13.486;2023-04-15T03:32:52;24.52;;;11.93;;
55609;SDS011;41486;52.502;13.486;2023-04-15T03:35:23;25.30;;;11.05;;
55609;SDS011;41486;52.502;13.486;2023-04-15T03:37:52;19.92;;;11.63;;
55609;SDS011;41486;52.502;13.486;2023-04-15T03:40:22;20.10;;;11.50;;
55609;SDS011;41486;52.502;13.486;2023-04-15T03:42:51;19.20;;;11.43;;
55609;SDS011;41486;52.502;13.486;2023-04-15T03:45:20;19.70;;;11.20;;
55609;SDS011;41486;52.502;13.486;2023-04-15T03:47:49;21.80;;;11.55;;
55609;SDS011;41486;52.502;13.486;2023-04-15T03:50:19;18.80;;;10.93;;
55609;SDS011;41486;52.502;13.486;2023-04-15T03:52:49;17.60;;;10.57;;
55609;SDS011;41486;52.502;13.486;2023-04-15T03:55:19;23.75;;;12.10;;
55609;SDS011;41486;52.502;13.486;2023-04-15T03:57:48;20.25;;;11.73;;
55609;SDS011;41486;52.502;13.486;2023-04-15T04:00:17;20.70;;;9.93;;
55609;SDS011;41486;52.502;13.486;2023-04-15T04:02:47;16.60;;;9.77;;
55609;SDS011;41486;52.502;13.486;2023-04-15T04:05:16;18.98;;;11.63;;
55609;SDS011;41486;52.502;13.486;2023-04-15T04:07:45;18.52;;;10.50;;
55609;SDS011;41486;52.502;13.486;2023-04-15T04:10:16;15.25;;;9.55;;
55609;SDS011;41486;52.502;13.486;2023-04-15T04:12:45;18.30;;;10.68;;
55609;SDS011;41486;52.502;13.486;2023-04-15T04:15:14;14.43;;;9.30;;
55609;SDS011;41486;52.502;13.486;2023-04-15T04:17:43;19.25;;;10.57;;
55609;SDS011;41486;52.502;13.486;2023-04-15T04:20:13;15.30;;;10.05;;
55609;SDS011;41486;52.502;13.486;2023-04-15T04:22:42;15.40;;;9.00;;
55609;SDS011;41486;52.502;13.486;2023-04-15T04:25:12;17.10;;;9.70;;
55609;SDS011;41486;52.502;13.486;2023-04-15T04:27:42;15.20;;;8.73;;
55609;SDS011;41486;52.502;13.486;2023-04-15T04:30:12;15.80;;;8.73;;
55609;SDS011;41486;52.502;13.486;2023-04-15T04:32:41;16.30;;;8.70;;
55609;SDS011;41486;52.502;13.486;2023-04-15T04:35:10;14.93;;;8.25;;
55609;SDS011;41486;52.502;13.486;2023-04-15T04:37:40;17.55;;;8.98;;
55609;SDS011;41486;52.502;13.486;2023-04-15T04:40:09;14.35;;;9.43;;
55609;SDS011;41486;52.502;13.486;2023-04-15T04:42:39;16.70;;;9.68;;
55609;SDS011;41486;52.502;13.486;2023-04-15T04:45:10;15.52;;;10.02;;
55609;SDS011;41486;52.502;13.486;2023-04-15T04:47:40;17.90;;;9.93;;
55609;SDS011;41486;52.502;13.486;2023-04-15T04:50:09;14.13;;;8.20;;
55609;SDS011;41486;52.502;13.486;2023-04-15T04:52:38;16.65;;;9.13;;
55609;SDS011;41486;52.502;13.486;2023-04-15T04:55:08;14.70;;;9.27;;
55609;SDS011;41486;52.502;13.486;2023-04-15T04:57:37;14.40;;;9.43;;
55609;SDS011;41486;52.502;13.486;2023-04-15T05:00:07;16.33;;;9.25;;
55609;SDS011;41486;52.502;13.486;2023-04-15T05:02:38;14.05;;;8.32;;
55609;SDS011;41486;52.502;13.486;2023-04-15T05:05:09;13.65;;;8.95;;
55609;SDS011;41486;52.502;13.486;2023-04-15T05:07:39;15.00;;;9.77;;
55609;SDS011;41486;52.502;13.486;2023-04-15T05:10:09;16.38;;;9.07;;
55609;SDS011;41486;52.502;13.486;2023-04-15T05:12:38;15.70;;;8.80;;
55609;SDS011;41486;52.502;13.486;2023-04-15T05:15:08;13.45;;;7.68;;
55609;SDS011;41486;52.502;13.486;2023-04-15T05:17:39;13.60;;;8.32;;
55609;SDS011;41486;52.502;13.486;2023-04-15T05:20:08;18.38;;;9.45;;
55609;SDS011;41486;52.502;13.486;2023-04-15T05:22:38;12.30;;;7.80;;
55609;SDS011;41486;52.502;13.486;2023-04-15T05:25:08;10.68;;;7.85;;
55609;SDS011;41486;52.502;13.486;2023-04-15T05:27:37;13.88;;;8.68;;
55609;SDS011;41486;52.502;13.486;2023-04-15T05:30:06;14.15;;;8.80;;
55609;SDS011;41486;52.502;13.486;2023-04-15T05:32:41;10.57;;;7.00;;
55609;SDS011;41486;52.502;13.486;2023-04-15T05:35:10;13.15;;;8.32;;
55609;SDS011;41486;52.502;13.486;2023-04-15T05:37:39;10.18;;;7.03;;
55609;SDS011;41486;52.502;13.486;2023-04-15T05:40:09;12.20;;;6.90;;
55609;SDS011;41486;52.502;13.486;2023-04-15T05:42:38;10.93;;;7.20;;
55609;SDS011;41486;52.502;13.486;2023-04-15T05:45:08;10.80;;;6.80;;
55609;SDS011;41486;52.502;13.486;2023-04-15T05:47:38;9.68;;;6.93;;
55609;SDS011;41486;52.502;13.486;2023-04-15T05:50:09;11.10;;;6.95;;
55609;SDS011;41486;52.502;13.486;2023-04-15T05:52:38;12.80;;;7.85;;
55609;SDS011;41486;52.502;13.486;2023-04-15T05:55:08;10.63;;;7.43;;
55609;SDS011;41486;52.502;13.486;2023-04-15T05:57:37;9.35;;;6.10;;
55609;SDS011;41486;52.502;13.486;2023-04-15T06:00:07;9.50;;;6.80;;
55609;SDS011;41486;52.502;13.486;2023-04-15T06:02:37;10.07;;;6.60;;
55609;SDS011;41486;52.502;13.486;2023-04-15T06:05:06;11.80;;;6.85;;
55609;SDS011;41486;52.502;13.486;2023-04-15T06:07:38;10.48;;;6.20;;
55609;SDS011;41486;52.502;13.486;2023-04-15T06:10:08;8.10;;;5.72;;
55609;SDS011;41486;52.502;13.486;2023-04-15T06:12:37;9.13;;;6.38;;
55609;SDS011;41486;52.502;13.486;2023-04-15T06:15:07;11.43;;;6.40;;
55609;SDS011;41486;52.502;13.486;2023-04-15T06:17:37;8.93;;;6.35;;
55609;SDS011;41486;52.502;13.486;2023-04-15T06:20:09;9.55;;;6.30;;
55609;SDS011;41486;52.502;13.486;2023-04-15T06:22:39;10.60;;;5.78;;
55609;SDS011;41486;52.502;13.486;2023-04-15T06:25:08;8.25;;;6.50;;
55609;SDS011;41486;52.502;13.486;2023-04-15T06:27:37;9.93;;;6.45;;
55609;SDS011;41486;52.502;13.486;2023-04-15T06:30:07;9.43;;;6.70;;
55609;SDS011;41486;52.502;13.486;2023-04-15T06:32:37;9.75;;;6.47;;
55609;SDS011;41486;52.502;13.486;2023-04-15T06:35:07;9.23;;;6.18;;
55609;SDS011;41486;52.502;13.486;2023-04-15T06:37:38;9.02;;;5.82;;
55609;SDS011;41486;52.502;13.486;2023-04-15T06:40:07;10.70;;;7.43;;
55609;SDS011;41486;52.502;13.486;2023-04-15T06:42:37;10.43;;;6.50;;
55609;SDS011;41486;52.502;13.486;2023-04-15T06:45:07;10.13;;;6.40;;
55609;SDS011;41486;52.502;13.486;2023-04-15T06:47:37;11.05;;;6.68;;
55609;SDS011;41486;52.502;13.486;2023-04-15T06:50:09;10.40;;;6.90;;
55609;SDS011;41486;52.502;13.486;2023-04-15T06:52:39;8.95;;;6.20;;
55609;SDS011;41486;52.502;13.486;2023-04-15T06:55:08;8.95;;;6.28;;
55609;SDS011;41486;52.502;13.486;2023-04-15T06:57:38;9.25;;;6.38;;
55609;SDS011;41486;52.502;13.486;2023-04-15T07:00:07;9.30;;;6.40;;
55609;SDS011;41486;52.502;13.486;2023-04-15T07:02:38;7.95;;;5.55;;
55609;SDS011;41486;52.502;13.486;2023-04-15T07:05:09;13.98;;;8.55;;
55609;SDS011;41486;52.502;13.486;2023-04-15T07:07:39;15.00;;;9.02;;
55609;SDS011;41486;52.502;13.486;2023-04-15T07:10:09;8.77;;;6.15;;
55609;SDS011;41486;52.502;13.486;2023-04-15T07:12:38;8.80;;;5.75;;
55609;SDS011;41486;52.502;13.486;2023-04-15T07:15:08;5.85;;;4.70;;
55609;SDS011;41486;52.502;13.486;2023-04-15T07:17:39;7.95;;;5.40;;
55609;SDS011;41486;52.502;13.486;2023-04-15T07:20:11;7.63;;;5.55;;
55609;SDS011;41486;52.502;13.486;2023-04-15T07:22:41;8.90;;;5.75;;
55609;SDS011;41486;52.502;13.486;2023-04-15T07:25:10;9.55;;;5.88;;
55609;SDS011;41486;52.502;13.486;2023-04-15T07:27:40;7.95;;;5.68;;
55609;SDS011;41486;52.502;13.486;2023-04-15T07:30:09;9.63;;;5.82;;
55609;SDS011;41486;52.502;13.486;2023-04-15T07:32:40;10.20;;;6.35;;
55609;SDS011;41486;52.502;13.486;2023-04-15T07:35:11;8.48;;;6.15;;
55609;SDS011;41486;52.502;13.486;2023-04-15T07:37:41;7.35;;;5.38;;
55609;SDS011;41486;52.502;13.486;2023-04-15T07:40:11;11.23;;;6.70;;
55609;SDS011;41486;52.502;13.486;2023-04-15T07:42:41;9.55;;;6.10;;
55609;SDS011;41486;52.502;13.486;2023-04-15T07:45:11;10.98;;;6.95;;
55609;SDS011;41486;52.502;13.486;2023-04-15T07:47:40;8.80;;;6.57;;
55609;SDS011;41486;52.502;13.486;2023-04-15T07:50:11;8.23;;;5.53;;
55609;SDS011;41486;52.502;13.486;2023-04-15T07:52:41;8.48;;;5.97;;
55609;SDS011;41486;52.502;13.486;2023-04-15T07:55:10;7.97;;;5.13;;
55609;SDS011;41486;52.502;13.486;2023-04-15T07:57:39;6.80;;;5.65;;
55609;SDS011;41486;52.502;13.486;2023-04-15T08:00:09;9.75;;;6.45;;
55609;SDS011;41486;52.502;13.486;2023-04-15T08:02:42;9.30;;;6.05;;
55609;SDS011;41486;52.502;13.486;2023-04-15T08:05:15;10.65;;;6.60;;
55609;SDS011;41486;52.502;13.486;2023-04-15T08:07:44;7.72;;;5.50;;
55609;SDS011;41486;52.502;13.486;2023-04-15T08:10:13;8.25;;;6.43;;
55609;SDS011;41486;52.502;13.486;2023-04-15T08:12:43;8.05;;;6.25;;
55609;SDS011;41486;52.502;13.486;2023-04-15T08:15:15;12.52;;;6.40;;
55609;SDS011;41486;52.502;13.486;2023-04-15T08:17:44;8.40;;;6.35;;
55609;SDS011;41486;52.502;13.486;2023-04-15T08:20:15;9.05;;;7.28;;
55609;SDS011;41486;52.502;13.486;2023-04-15T08:22:45;9.27;;;6.10;;
55609;SDS011;41486;52.502;13.486;2023-04-15T08:25:19;9.30;;;7.00;;
55609;SDS011;41486;52.502;13.486;2023-04-15T08:27:48;10.35;;;6.65;;
55609;SDS011;41486;52.502;13.486;2023-04-15T08:30:17;11.10;;;6.35;;
55609;SDS011;41486;52.502;13.486;2023-04-15T08:32:53;8.68;;;6.03;;
55609;SDS011;41486;52.502;13.486;2023-04-15T08:35:24;9.98;;;6.70;;
55609;SDS011;41486;52.502;13.486;2023-04-15T08:37:53;10.18;;;7.28;;
55609;SDS011;41486;52.502;13.486;2023-04-15T08:40:23;8.15;;;6.30;;
55609;SDS011;41486;52.502;13.486;2023-04-15T08:43:03;10.27;;;6.50;;
55609;SDS011;41486;52.502;13.486;2023-04-15T08:45:36;7.68;;;6.00;;
55609;SDS011;41486;52.502;13.486;2023-04-15T08:48:09;11.05;;;7.93;;
55609;SDS011;41486;52.502;13.486;2023-04-15T08:50:45;9.98;;;6.93;;
55609;SDS011;41486;52.502;13.486;2023-04-15T08:53:15;12.68;;;7.68;;
55609;SDS011;41486;52.502;13.486;2023-04-15T08:55:46;10.60;;;7.05;;
55609;SDS011;41486;52.502;13.486;2023-04-15T08:58:19;11.95;;;7.93;;
55609;SDS011;41486;52.502;13.486;2023-04-15T09:00:49;9.57;;;7.30;;
55609;SDS011;41486;52.502;13.486;2023-04-15T09:03:18;11.77;;;8.30;;
55609;SDS011;41486;52.502;13.486;2023-04-15T09:05:50;11.18;;;7.45;;
55609;SDS011;41486;52.502;13.486;2023-04-15T09:08:20;10.70;;;6.88;;
55609;SDS011;41486;52.502;13.486;2023-04-15T09:10:49;10.93;;;7.55;;
55609;SDS011;41486;52.502;13.486;2023-04-15T09:13:20;8.35;;;6.40;;
55609;SDS011;41486;52.502;13.486;2023-04-15T09:15:49;9.48;;;7.05;;
55609;SDS011;41486;52.502;13.486;2023-04-15T09:18:26;10.73;;;6.55;;
55609;SDS011;41486;52.502;13.486;2023-04-15T09:21:07;10.13;;;7.10;;
55609;SDS011;41486;52.502;13.486;2023-04-15T09:23:53;9.00;;;6.82;;
55609;SDS011;41486;52.502;13.486;2023-04-15T09:26:31;7.30;;;6.28;;
55609;SDS011;41486;52.502;13.486;2023-04-15T09:29:02;10.35;;;6.70;;
55609;SDS011;41486;52.502;13.486;2023-04-15T09:31:34;10.82;;;7.07;;
55609;SDS011;41486;52.502;13.486;2023-04-15T09:34:07;15.32;;;10.15;;
55609;SDS011;41486;52.502;13.486;2023-04-15T09:36:51;10.30;;;7.20;;
55609;SDS011;41486;52.502;13.486;2023-04-15T09:42:02;8.55;;;6.20;;
55609;SDS011;41486;52.502;13.486;2023-04-15T09:44:33;8.55;;;6.43;;
55609;SDS011;41486;52.502;13.486;2023-04-15T09:47:17;11.93;;;6.90;;
55609;SDS011;41486;52.502;13.486;2023-04-15T09:49:59;9.95;;;6.60;;
55609;SDS011;41486;52.502;13.486;2023-04-15T09:52:39;9.85;;;6.68;;
55609;SDS011;41486;52.502;13.486;2023-04-15T09:55:09;9.57;;;7.05;;
55609;SDS011;41486;52.502;13.486;2023-04-15T09:57:42;8.45;;;6.25;;
55609;SDS011;41486;52.502;13.486;2023-04-15T10:00:14;8.43;;;6.60;;
55609;SDS011;41486;52.502;13.486;2023-04-15T10:02:43;8.07;;;6.25;;
55609;SDS011;41486;52.502;13.486;2023-04-15T10:05:17;9.35;;;6.70;;
55609;SDS011;41486;52.502;13.486;2023-04-15T10:07:47;9.40;;;6.78;;
55609;SDS011;41486;52.502;13.486;2023-04-15T10:10:17;8.40;;;6.68;;
55609;SDS011;41486;52.502;13.486;2023-04-15T10:12:47;8.43;;;6.45;;
55609;SDS011;41486;52.502;13.486;2023-04-15T10:15:19;11.52;;;6.95;;
55609;SDS011;41486;52.502;13.486;2023-04-15T10:17:49;9.18;;;6.78;;
55609;SDS011;41486;52.502;13.486;2023-04-15T10:20:21;9.05;;;6.35;;
55609;SDS011;41486;52.502;13.486;2023-04-15T10:22:52;9.95;;;6.35;;
55609;SDS011;41486;52.502;13.486;2023-04-15T10:25:22;10.15;;;7.40;;
55609;SDS011;41486;52.502;13.486;2023-04-15T10:27:55;12.75;;;7.32;;
55609;SDS011;41486;52.502;13.486;2023-04-15T10:30:25;7.68;;;6.18;;
55609;SDS011;41486;52.502;13.486;2023-04-15T10:32:54;10.00;;;6.47;;
55609;SDS011;41486;52.502;13.486;2023-04-15T10:35:24;9.15;;;7.22;;
55609;SDS011;41486;52.502;13.486;2023-04-15T10:37:56;9.52;;;6.50;;
55609;SDS011;41486;52.502;13.486;2023-04-15T10:40:26;9.40;;;6.70;;
55609;SDS011;41486;52.502;13.486;2023-04-15T10:42:58;10.07;;;6.78;;
55609;SDS011;41486;52.502;13.486;2023-04-15T10:45:31;12.55;;;6.80;;
55609;SDS011;41486;52.502;13.486;2023-04-15T10:48:01;8.98;;;6.07;;
55609;SDS011;41486;52.502;13.486;2023-04-15T10:50:32;15.13;;;7.80;;
55609;SDS011;41486;52.502;13.486;2023-04-15T10:53:03;7.72;;;6.15;;
55609;SDS011;41486;52.502;13.486;2023-04-15T10:55:33;7.78;;;6.30;;
55609;SDS011;41486;52.502;13.486;2023-04-15T10:58:02;8.25;;;6.72;;
55609;SDS011;41486;52.502;13.486;2023-04-15T11:00:32;9.10;;;6.72;;
55609;SDS011;41486;52.502;13.486;2023-04-15T11:03:06;9.48;;;7.13;;
55609;SDS011;41486;52.502;13.486;2023-04-15T11:14:36;8.40;;;6.25;;
55609;SDS011;41486;52.502;13.486;2023-04-15T11:17:08;6.70;;;5.68;;
55609;SDS011;41486;52.502;13.486;2023-04-15T11:19:37;111.57;;;30.83;;
55609;SDS011;41486;52.502;13.486;2023-04-15T11:22:07;18.60;;;7.90;;
55609;SDS011;41486;52.502;13.486;2023-04-15T11:24:47;9.35;;;6.63;;
55609;SDS011;41486;52.502;13.486;2023-04-15T11:27:20;9.50;;;6.22;;
55609;SDS011;41486;52.502;13.486;2023-04-15T11:29:50;10.88;;;5.93;;
55609;SDS011;41486;52.502;13.486;2023-04-15T11:32:20;7.63;;;5.20;;
55609;SDS011;41486;52.502;13.486;2023-04-15T11:34:50;7.85;;;5.47;;
55609;SDS011;41486;52.502;13.486;2023-04-15T11:37:26;7.45;;;5.72;;
55609;SDS011;41486;52.502;13.486;2023-04-15T11:39:57;8.15;;;5.70;;
55609;SDS011;41486;52.502;13.486;2023-04-15T11:42:27;6.53;;;5.43;;
55609;SDS011;41486;52.502;13.486;2023-04-15T11:45:13;7.45;;;5.35;;
55609;SDS011;41486;52.502;13.486;2023-04-15T11:47:50;8.65;;;5.40;;
55609;SDS011;41486;52.502;13.486;2023-04-15T11:50:20;8.30;;;5.55;;
55609;SDS011;41486;52.502;13.486;2023-04-15T11:52:53;9.88;;;5.95;;
55609;SDS011;41486;52.502;13.486;2023-04-15T11:55:23;6.00;;;5.22;;
55609;SDS011;41486;52.502;13.486;2023-04-15T11:58:04;6.50;;;5.35;;
55609;SDS011;41486;52.502;13.486;2023-04-15T12:00:33;8.60;;;5.68;;
55609;SDS011;41486;52.502;13.486;2023-04-15T12:03:11;6.65;;;5.47;;
55609;SDS011;41486;52.502;13.486;2023-04-15T12:06:06;7.85;;;5.75;;
55609;SDS011;41486;52.502;13.486;2023-04-15T12:08:49;6.20;;;4.85;;
55609;SDS011;41486;52.502;13.486;2023-04-15T12:11:30;6.97;;;5.38;;
55609;SDS011;41486;52.502;13.486;2023-04-15T12:14:04;8.60;;;6.30;;
55609;SDS011;41486;52.502;13.486;2023-04-15T12:16:34;8.73;;;5.93;;
55609;SDS011;41486;52.502;13.486;2023-04-15T12:19:15;7.28;;;5.22;;
55609;SDS011;41486;52.502;13.486;2023-04-15T12:21:47;7.97;;;6.18;;
55609;SDS011;41486;52.502;13.486;2023-04-15T12:24:18;5.82;;;5.18;;
55609;SDS011;41486;52.502;13.486;2023-04-15T12:26:49;6.75;;;5.38;;
55609;SDS011;41486;52.502;13.486;2023-04-15T12:29:19;7.60;;;5.53;;
55609;SDS011;41486;52.502;13.486;2023-04-15T12:31:52;6.80;;;4.75;;
55609;SDS011;41486;52.502;13.486;2023-04-15T12:34:27;6.40;;;4.70;;
55609;SDS011;41486;52.502;13.486;2023-04-15T12:36:57;6.15;;;4.70;;
55609;SDS011;41486;52.502;13.486;2023-04-15T12:39:27;7.53;;;4.93;;
55609;SDS011;41486;52.502;13.486;2023-04-15T12:41:58;5.47;;;4.25;;
55609;SDS011;41486;52.502;13.486;2023-04-15T12:44:27;6.55;;;4.85;;
55609;SDS011;41486;52.502;13.486;2023-04-15T12:46:55;7.43;;;5.18;;
55609;SDS011;41486;52.502;13.486;2023-04-15T12:49:23;5.57;;;4.65;;
55609;SDS011;41486;52.502;13.486;2023-04-15T12:51:53;6.50;;;4.63;;
55609;SDS011;41486;52.502;13.486;2023-04-15T12:54:23;5.32;;;4.22;;
55609;SDS011;41486;52.502;13.486;2023-04-15T12:56:52;6.80;;;4.43;;
55609;SDS011;41486;52.502;13.486;2023-04-15T12:59:22;5.97;;;4.57;;
55609;SDS011;41486;52.502;13.486;2023-04-15T13:01:50;5.13;;;4.03;;
55609;SDS011;41486;52.502;13.486;2023-04-15T13:04:20;5.63;;;4.57;;
55609;SDS011;41486;52.502;13.486;2023-04-15T13:11:16;5.45;;;4.10;;
55609;SDS011;41486;52.502;13.486;2023-04-15T13:13:49;5.25;;;3.67;;
55609;SDS011;41486;52.502;13.486;2023-04-15T13:16:19;5.18;;;3.65;;
55609;SDS011;41486;52.502;13.486;2023-04-15T13:18:47;7.15;;;5.78;;
55609;SDS011;41486;52.502;13.486;2023-04-15T13:21:16;5.95;;;4.22;;
55609;SDS011;41486;52.502;13.486;2023-04-15T13:23:44;4.53;;;3.45;;
55609;SDS011;41486;52.502;13.486;2023-04-15T13:26:12;4.68;;;3.65;;
55609;SDS011;41486;52.502;13.486;2023-04-15T13:28:40;5.97;;;4.47;;
55609;SDS011;41486;52.502;13.486;2023-04-15T13:31:08;4.93;;;3.92;;
55609;SDS011;41486;52.502;13.486;2023-04-15T13:33:38;6.72;;;4.38;;
55609;SDS011;41486;52.502;13.486;2023-04-15T13:36:06;4.63;;;3.58;;
55609;SDS011;41486;52.502;13.486;2023-04-15T13:38:35;4.72;;;3.67;;
55609;SDS011;41486;52.502;13.486;2023-04-15T13:41:03;5.28;;;3.80;;
55609;SDS011;41486;52.502;13.486;2023-04-15T13:43:30;3.90;;;3.45;;
55609;SDS011;41486;52.502;13.486;2023-04-15T13:45:59;4.97;;;3.53;;
55609;SDS011;41486;52.502;13.486;2023-04-15T13:48:27;4.15;;;3.10;;
55609;SDS011;41486;52.502;13.486;2023-04-15T13:50:57;4.10;;;3.70;;
55609;SDS011;41486;52.502;13.486;2023-04-15T13:53:25;4.07;;;3.38;;
55609;SDS011;41486;52.502;13.486;2023-04-15T13:56:04;4.60;;;3.42;;
55609;SDS011;41486;52.502;13.486;2023-04-15T13:58:32;3.72;;;3.13;;
55609;SDS011;41486;52.502;13.486;2023-04-15T14:01:00;4.22;;;3.10;;
55609;SDS011;41486;52.502;13.486;2023-04-15T14:03:31;4.03;;;3.30;;
55609;SDS011;41486;52.502;13.486;2023-04-15T14:06:01;4.85;;;3.53;;
55609;SDS011;41486;52.502;13.486;2023-04-15T14:08:29;5.45;;;3.30;;
55609;SDS011;41486;52.502;13.486;2023-04-15T14:10:57;5.20;;;3.67;;
55609;SDS011;41486;52.502;13.486;2023-04-15T14:13:25;4.68;;;3.38;;
55609;SDS011;41486;52.502;13.486;2023-04-15T14:15:53;4.47;;;3.65;;
55609;SDS011;41486;52.502;13.486;2023-04-15T14:18:23;4.15;;;3.35;;
55609;SDS011;41486;52.502;13.486;2023-04-15T14:20:54;4.32;;;3.35;;
55609;SDS011;41486;52.502;13.486;2023-04-15T14:23:26;4.75;;;3.72;;
55609;SDS011;41486;52.502;13.486;2023-04-15T14:25:59;4.43;;;3.92;;
55609;SDS011;41486;52.502;13.486;2023-04-15T14:28:27;6.07;;;4.63;;
55609;SDS011;41486;52.502;13.486;2023-04-15T14:30:55;5.97;;;3.95;;
55609;SDS011;41486;52.502;13.486;2023-04-15T14:33:23;7.28;;;4.95;;
55609;SDS011;41486;52.502;13.486;2023-04-15T14:35:51;6.72;;;4.35;;
55609;SDS011;41486;52.502;13.486;2023-04-15T14:38:19;7.30;;;4.90;;
55609;SDS011;41486;52.502;13.486;2023-04-15T14:40:49;5.70;;;3.92;;
55609;SDS011;41486;52.502;13.486;2023-04-15T14:43:17;5.13;;;4.10;;
55609;SDS011;41486;52.502;13.486;2023-04-15T14:45:45;5.03;;;3.90;;
55609;SDS011;41486;52.502;13.486;2023-04-15T14:48:14;5.68;;;3.95;;
55609;SDS011;41486;52.502;13.486;2023-04-15T14:50:42;4.57;;;3.90;;
55609;SDS011;41486;52.502;13.486;2023-04-15T14:53:10;5.35;;;4.00;;
55609;SDS011;41486;52.502;13.486;2023-04-15T14:55:38;5.75;;;3.97;;
55609;SDS011;41486;52.502;13.486;2023-04-15T14:58:08;4.65;;;3.88;;